Mason, MI

10:17 PM EST on February 13, 2016 (GMT -0500)
Mason Jewett | | Change Station
CLOSE
Current Station
Airport
Location: Mason,
Elevation: 919 ft
Nearby Weather Stations

Elev 919 ft 42.57 °N, 84.42 °W | Updated 4 minutes ago

Clear
Clear
7 °F
Feels Like 0 °F
N
4
Wind Variable Wind from West

Today
High -- | Low -- °F
--% Chance of Precip.
Yesterday
High -- | Low -- °F
Precip. -- in
Pressure 30.44 in
Visibility 10.0 miles
Clouds Clear
Windchill 0 °F
Dew Point 0 °F
Humidity 71%
Rainfall 0.00 in
Snow Depth Not available.
7:37 AM 6:06 PM
Waxing Crescent, 37% visible
METAR KTEW 140313Z AUTO 27003KT 10SM CLR M14/M18 A3044 RMK AO2 T11371179
Pressure 30.44 in
Visibility 10.0 miles
Clouds Clear
Windchill 0 °F
Dew Point 0 °F
Humidity 71%
Rainfall 0.00 in
Snow Depth Not available.
7:37 AM 6:06 PM
Waxing Crescent, 37% visible
METAR KTEW 140313Z AUTO 27003KT 10SM CLR M14/M18 A3044 RMK AO2 T11371179

10-Day Weather Forecast

Almanac

Astronomy

Feb. 13, 2016 Rise Set
Actual Time
Civil Twilight
Nautical Twilight
Astronomical Twilight
Moon
Length of Visible Light
Length of Day
Tomorrow will be .
, % of the Moon is Illuminated

Today's Extremes

State Highs State Lows

Community

WunderPhotos

Upload Photos

1,892,733 photos uploaded!

WunderBlog® & News

Nearby

Air Quality

  Air Quality AQ Index Pollutant
Not available.

Snow Depth

Station Depth Elevation

Earthquake Activity

City Distance Mag. Time & Date
Minimum magnitude displayed is 2.5.

Coastal Water Temperatures

Place Temperature

Stations

Nearby Weather Stations

Station Location Temp. Windchill Dew Point Humidity Wind Precip. Elev Updated Type
                   

Watches & Warnings

There are currently no watches in effect.